createdAt,value
2022-07-28T00:03:33.126Z,34.10
2022-07-28T00:04:21.327Z,34.03
2022-07-28T00:05:07.240Z,33.99
2022-07-28T00:06:02.666Z,33.78
2022-07-28T00:06:54.631Z,34.20
2022-07-28T00:07:54.595Z,34.14
2022-07-28T00:10:20.563Z,34.13
2022-07-28T00:15:06.668Z,34.08
2022-07-28T00:15:45.065Z,33.86
2022-07-28T00:17:25.677Z,33.82
2022-07-28T00:18:18.700Z,33.77
2022-07-28T00:19:04.605Z,33.89
2022-07-28T00:19:56.052Z,33.78
2022-07-28T00:20:55.295Z,33.87
2022-07-28T00:22:56.614Z,34.13
2022-07-28T00:24:53.034Z,33.97
2022-07-28T00:25:50.152Z,34.19
2022-07-28T00:26:38.280Z,34.05
2022-07-28T00:27:25.720Z,33.98
2022-07-28T00:28:21.417Z,33.96
2022-07-28T00:29:21.013Z,33.96
2022-07-28T00:30:22.426Z,34.28
2022-07-28T00:32:20.254Z,34.10
2022-07-28T00:35:08.745Z,33.64
2022-07-28T00:40:39.281Z,33.96
2022-07-28T00:41:16.057Z,34.05
2022-07-28T00:41:47.364Z,34.01
2022-07-28T00:42:19.110Z,34.07
2022-07-28T00:42:50.440Z,34.00
2022-07-28T00:43:23.712Z,33.93
2022-07-28T00:43:55.023Z,34.10
2022-07-28T00:44:26.321Z,33.77
2022-07-28T00:44:57.638Z,34.01
2022-07-28T00:45:28.940Z,33.90
2022-07-28T00:46:00.244Z,33.85
2022-07-28T00:46:31.622Z,33.71
2022-07-28T00:47:03.172Z,33.92
2022-07-28T00:47:34.568Z,33.73
2022-07-28T00:50:43.973Z,33.79
2022-07-28T00:51:36.522Z,34.06
2022-07-28T00:52:29.550Z,34.08
2022-07-28T00:53:30.061Z,33.86
2022-07-28T00:54:27.462Z,33.84
2022-07-28T00:56:24.980Z,33.61
2022-07-28T00:57:03.621Z,34.06
2022-07-28T00:57:42.427Z,33.82
2022-07-28T00:58:20.253Z,33.79
2022-07-28T00:58:58.666Z,33.68
2022-07-28T00:59:36.722Z,33.84
2022-07-28T01:00:13.914Z,33.60
2022-07-28T01:00:53.227Z,33.85
2022-07-28T01:01:31.943Z,33.70
2022-07-28T01:02:10.193Z,33.91
2022-07-28T01:02:48.899Z,34.11
2022-07-28T01:03:27.274Z,33.78
2022-07-28T01:04:05.178Z,33.95
2022-07-28T01:04:46.523Z,33.63
2022-07-28T01:05:44.069Z,33.73
2022-07-28T01:06:23.431Z,34.07
2022-07-28T01:07:13.473Z,33.82
2022-07-28T01:07:58.112Z,33.89
2022-07-28T01:08:40.872Z,33.95
2022-07-28T01:09:21.466Z,33.90
2022-07-28T01:10:11.672Z,33.96
2022-07-28T01:11:15.574Z,33.94
2022-07-28T01:11:53.699Z,33.65
2022-07-28T01:12:34.822Z,33.78
2022-07-28T01:13:27.870Z,34.06
2022-07-28T01:14:14.200Z,34.01
2022-07-28T01:14:53.247Z,33.71
2022-07-28T01:15:33.766Z,33.89
2022-07-28T01:16:12.071Z,33.91
2022-07-28T01:16:59.241Z,33.96
2022-07-28T01:17:44.076Z,33.89
2022-07-28T01:18:32.571Z,33.65
2022-07-28T01:19:25.783Z,34.09
2022-07-28T01:20:06.263Z,33.87
2022-07-28T01:20:44.484Z,33.66
2022-07-28T01:21:22.069Z,33.67
2022-07-28T01:21:59.076Z,33.88
2022-07-28T01:22:36.979Z,34.04
2022-07-28T01:23:26.878Z,33.79
2022-07-28T01:24:15.052Z,34.19
2022-07-28T01:24:50.001Z,33.92
2022-07-28T01:25:26.770Z,33.81
2022-07-28T01:26:20.627Z,34.10
2022-07-28T01:27:11.861Z,33.71
2022-07-28T01:27:51.953Z,33.73
2022-07-28T01:28:45.744Z,34.05
2022-07-28T01:29:44.697Z,33.71
2022-07-28T01:30:22.613Z,33.74
2022-07-28T01:31:05.696Z,33.74
2022-07-28T01:31:47.172Z,33.60
2022-07-28T01:32:28.330Z,33.97
2022-07-28T01:33:11.162Z,34.02
2022-07-28T01:33:53.281Z,33.84
2022-07-28T01:34:42.906Z,33.96
2022-07-28T01:35:19.558Z,33.75
2022-07-28T01:36:04.876Z,33.83
2022-07-28T01:36:54.149Z,33.66
2022-07-28T01:37:32.083Z,34.09
2022-07-28T01:38:15.051Z,33.74
2022-07-28T01:39:04.497Z,33.65
2022-07-28T01:39:52.593Z,33.90
2022-07-28T01:40:29.282Z,33.81
2022-07-28T01:41:06.168Z,33.92
2022-07-28T01:41:42.807Z,34.16
2022-07-28T01:42:19.793Z,33.73
2022-07-28T01:42:57.311Z,34.10
2022-07-28T01:43:35.565Z,33.81
2022-07-28T01:44:14.514Z,33.90
2022-07-28T01:44:53.480Z,33.57
2022-07-28T01:45:31.761Z,33.56
2022-07-28T01:46:10.367Z,33.71
2022-07-28T01:46:48.532Z,33.52
2022-07-28T01:47:26.740Z,33.75
2022-07-28T01:48:05.541Z,33.64
2022-07-28T01:48:43.717Z,33.38
2022-07-28T01:49:22.374Z,33.57
2022-07-28T01:50:00.322Z,33.75
2022-07-28T01:50:37.951Z,33.51
2022-07-28T01:51:15.999Z,33.67
2022-07-28T01:51:55.495Z,33.58
2022-07-28T01:52:37.408Z,33.68
2022-07-28T01:53:20.130Z,33.56
2022-07-28T01:54:04.730Z,33.63
2022-07-28T01:54:57.341Z,34.08
2022-07-28T01:55:35.507Z,33.81
2022-07-28T01:56:12.241Z,34.10
2022-07-28T01:56:49.572Z,33.78
2022-07-28T01:57:26.973Z,33.94
2022-07-28T01:58:04.367Z,33.82
2022-07-28T01:58:41.826Z,33.65
2022-07-28T01:59:19.359Z,33.77
2022-07-28T01:59:57.150Z,33.66
2022-07-28T02:00:34.932Z,33.68
2022-07-28T02:01:12.731Z,33.91
2022-07-28T02:01:50.601Z,33.90
2022-07-28T02:02:27.951Z,33.48
2022-07-28T02:03:05.983Z,33.56
2022-07-28T02:03:43.946Z,33.77
2022-07-28T02:04:21.353Z,33.38
2022-07-28T02:04:59.232Z,33.66
2022-07-28T02:05:36.399Z,33.74
2022-07-28T02:06:13.741Z,33.53
2022-07-28T02:06:51.209Z,33.98
2022-07-28T02:07:28.548Z,33.85
2022-07-28T02:08:05.601Z,33.62
2022-07-28T02:08:43.194Z,33.89
2022-07-28T02:09:21.473Z,33.86
2022-07-28T02:10:03.375Z,33.96
2022-07-28T02:10:44.858Z,33.67
2022-07-28T02:11:26.089Z,33.81
2022-07-28T02:12:08.733Z,33.68
2022-07-28T02:12:49.330Z,33.77
2022-07-28T02:13:30.618Z,33.78
2022-07-28T02:14:09.330Z,33.65
2022-07-28T02:14:46.833Z,33.89
2022-07-28T02:15:28.363Z,33.57
2022-07-28T02:16:09.987Z,33.67
2022-07-28T02:16:53.956Z,33.61
2022-07-28T02:17:38.436Z,33.55
2022-07-28T02:18:23.574Z,33.68
2022-07-28T02:19:03.214Z,33.81
2022-07-28T02:19:39.861Z,33.58
2022-07-28T02:20:17.733Z,33.67
2022-07-28T02:20:54.549Z,33.97
2022-07-28T02:21:31.616Z,33.94
2022-07-28T02:22:08.463Z,33.84
2022-07-28T02:22:45.637Z,33.89
2022-07-28T02:23:27.954Z,33.77
2022-07-28T02:24:04.909Z,33.53
2022-07-28T02:24:41.722Z,33.68
2022-07-28T02:25:19.117Z,33.90
2022-07-28T02:25:56.404Z,33.51
2022-07-28T02:26:37.207Z,33.64
2022-07-28T02:27:18.150Z,34.06
2022-07-28T02:28:05.606Z,33.61
2022-07-28T02:28:51.602Z,33.72
2022-07-28T02:29:49.669Z,33.64
2022-07-28T02:30:36.957Z,33.67
2022-07-28T02:31:16.056Z,33.53
2022-07-28T02:31:53.608Z,33.69
2022-07-28T02:32:48.705Z,33.59
2022-07-28T02:33:58.379Z,33.61
2022-07-28T02:34:27.777Z,33.76
2022-07-28T02:35:20.398Z,33.71
2022-07-28T02:35:59.723Z,33.81
2022-07-28T02:36:41.359Z,33.54
2022-07-28T02:37:17.875Z,33.84
2022-07-28T02:38:07.753Z,33.60
2022-07-28T02:38:44.689Z,33.65
2022-07-28T02:39:24.001Z,33.81
2022-07-28T02:40:01.425Z,33.62
2022-07-28T02:40:39.250Z,33.61
2022-07-28T02:41:33.087Z,33.63
2022-07-28T02:42:12.299Z,33.66
2022-07-28T02:42:49.694Z,33.50
2022-07-28T02:43:49.560Z,33.84
2022-07-28T02:44:32.680Z,33.89
2022-07-28T02:45:17.158Z,33.46
2022-07-28T02:45:55.956Z,33.50
2022-07-28T02:46:36.038Z,33.53
2022-07-28T02:47:13.362Z,33.78
2022-07-28T02:47:51.420Z,33.56
2022-07-28T02:48:28.552Z,33.66
2022-07-28T02:49:05.997Z,33.95
2022-07-28T02:49:43.742Z,33.83
2022-07-28T02:50:21.283Z,33.68
2022-07-28T02:50:59.331Z,33.53
2022-07-28T02:51:36.743Z,33.60
2022-07-28T02:52:15.239Z,33.61
2022-07-28T02:52:53.208Z,33.44
2022-07-28T02:53:30.627Z,33.80
2022-07-28T02:54:07.236Z,33.32
2022-07-28T02:54:44.548Z,33.38
2022-07-28T02:55:21.295Z,33.80
2022-07-28T02:55:58.314Z,33.59
2022-07-28T02:56:35.712Z,33.56
2022-07-28T02:57:13.822Z,33.82
2022-07-28T02:57:56.521Z,33.72
2022-07-28T02:58:33.666Z,33.61
2022-07-28T02:59:11.175Z,33.74
2022-07-28T02:59:48.716Z,33.73
2022-07-28T03:00:26.381Z,33.40
2022-07-28T03:01:03.908Z,33.63
2022-07-28T03:01:41.483Z,33.43
2022-07-28T03:02:19.741Z,33.79
2022-07-28T03:02:57.382Z,33.70
2022-07-28T03:03:35.069Z,33.78
2022-07-28T03:04:12.992Z,33.80
2022-07-28T03:04:50.318Z,33.70
2022-07-28T03:05:27.775Z,33.35
2022-07-28T03:06:07.140Z,33.44
2022-07-28T03:06:46.243Z,33.35
2022-07-28T03:07:27.672Z,33.58
2022-07-28T03:08:10.530Z,33.76
2022-07-28T03:08:54.725Z,33.66
2022-07-28T03:09:41.793Z,33.37
2022-07-28T03:10:34.108Z,33.68
2022-07-28T03:11:11.311Z,33.66
2022-07-28T03:11:55.073Z,33.30
2022-07-28T03:12:32.862Z,33.52
2022-07-28T03:13:10.429Z,33.70
2022-07-28T03:13:47.731Z,33.64
2022-07-28T03:14:25.943Z,33.71
2022-07-28T03:15:03.872Z,33.62
2022-07-28T03:15:41.593Z,33.84
2022-07-28T03:16:20.289Z,33.42
2022-07-28T03:16:59.775Z,33.35
2022-07-28T03:17:42.907Z,33.52
2022-07-28T03:18:25.865Z,33.60
2022-07-28T03:19:13.587Z,33.42
2022-07-28T03:20:02.206Z,33.43
2022-07-28T03:20:47.643Z,33.35
2022-07-28T03:21:24.724Z,33.36
2022-07-28T03:22:02.130Z,33.42
2022-07-28T03:22:39.975Z,33.11
2022-07-28T03:23:19.424Z,33.45
2022-07-28T03:23:56.538Z,33.27
2022-07-28T03:24:34.638Z,33.46
2022-07-28T03:25:14.664Z,33.37
2022-07-28T03:25:53.965Z,33.54
2022-07-28T03:26:35.801Z,33.36
2022-07-28T03:27:32.253Z,33.35
2022-07-28T03:28:20.768Z,33.32
2022-07-28T03:28:59.618Z,33.56
2022-07-28T03:29:36.849Z,33.73
2022-07-28T03:30:21.089Z,33.39
2022-07-28T03:31:00.357Z,33.29
2022-07-28T03:31:39.588Z,33.24
2022-07-28T03:32:16.609Z,33.71
2022-07-28T03:32:54.847Z,33.53
2022-07-28T03:33:31.773Z,33.52
2022-07-28T03:34:10.106Z,33.43
2022-07-28T03:34:47.238Z,33.49
2022-07-28T03:35:24.566Z,33.39
2022-07-28T03:36:03.704Z,33.01
2022-07-28T03:36:42.570Z,33.54
2022-07-28T03:37:19.857Z,33.50
2022-07-28T03:37:57.278Z,33.41
2022-07-28T03:38:37.696Z,33.46
2022-07-28T03:39:15.554Z,33.50
2022-07-28T03:39:54.826Z,33.43
2022-07-28T03:40:32.408Z,33.56
2022-07-28T03:41:11.493Z,33.19
2022-07-28T03:41:51.247Z,33.21
2022-07-28T03:42:28.945Z,33.38
2022-07-28T03:43:06.808Z,33.56
2022-07-28T03:43:44.381Z,33.47
2022-07-28T03:44:27.704Z,33.30
2022-07-28T03:45:08.083Z,33.67
2022-07-28T03:45:48.048Z,33.42
2022-07-28T03:46:38.795Z,33.31
2022-07-28T03:47:20.174Z,33.25
2022-07-28T03:48:15.715Z,33.15
2022-07-28T03:48:57.695Z,33.15
2022-07-28T03:50:10.062Z,33.13
2022-07-28T03:50:55.030Z,33.21
2022-07-28T03:51:32.400Z,33.14
2022-07-28T03:52:10.472Z,33.09
2022-07-28T03:52:48.467Z,33.22
2022-07-28T03:53:27.284Z,33.24
2022-07-28T03:54:05.480Z,33.54
2022-07-28T03:54:42.676Z,33.63
2022-07-28T03:55:19.814Z,33.83
2022-07-28T03:55:57.602Z,33.41
2022-07-28T03:56:36.031Z,33.37
2022-07-28T03:57:13.997Z,33.37
2022-07-28T03:57:52.173Z,33.41
2022-07-28T03:58:29.930Z,33.35
2022-07-28T03:59:07.969Z,33.25
2022-07-28T03:59:47.689Z,33.31
2022-07-28T04:00:25.981Z,33.27
2022-07-28T04:01:04.968Z,33.27
2022-07-28T04:01:42.871Z,33.46
2022-07-28T04:02:21.333Z,33.11
2022-07-28T04:03:03.443Z,33.35
2022-07-28T04:03:45.123Z,33.49
2022-07-28T04:04:39.363Z,33.37
2022-07-28T04:05:16.217Z,33.09
2022-07-28T04:05:53.680Z,33.38
2022-07-28T04:06:32.018Z,33.32
2022-07-28T04:07:08.681Z,33.13
2022-07-28T04:07:46.110Z,33.33
2022-07-28T04:08:22.869Z,33.35
2022-07-28T04:08:59.988Z,33.35
2022-07-28T04:09:37.360Z,33.43
2022-07-28T04:10:14.663Z,33.49
2022-07-28T04:10:52.624Z,33.66
2022-07-28T04:11:30.639Z,33.61
2022-07-28T04:12:11.567Z,33.56
2022-07-28T04:12:52.553Z,33.36
2022-07-28T04:13:32.345Z,33.31
2022-07-28T04:14:16.189Z,33.27
2022-07-28T04:14:54.847Z,33.64
2022-07-28T04:15:37.152Z,33.47
2022-07-28T04:16:17.435Z,33.29
2022-07-28T04:16:59.468Z,33.26
2022-07-28T04:18:06.050Z,33.34
2022-07-28T04:18:43.239Z,33.36
2022-07-28T04:19:20.269Z,33.20
2022-07-28T04:19:57.401Z,33.21
2022-07-28T04:20:35.079Z,33.37
2022-07-28T04:21:12.355Z,33.25
2022-07-28T04:21:51.192Z,32.99
2022-07-28T04:22:29.497Z,33.32
2022-07-28T04:23:06.444Z,33.32
2022-07-28T04:23:43.842Z,33.17
2022-07-28T04:24:21.219Z,33.26
2022-07-28T04:24:59.115Z,33.23
2022-07-28T04:25:37.020Z,33.19
2022-07-28T04:26:16.549Z,33.40
2022-07-28T04:26:54.177Z,33.48
2022-07-28T04:27:33.397Z,33.49
2022-07-28T04:28:11.588Z,33.58
2022-07-28T04:28:50.075Z,33.42
2022-07-28T04:29:28.336Z,33.21
2022-07-28T04:30:07.181Z,33.66
2022-07-28T04:30:44.889Z,33.24
2022-07-28T04:31:23.306Z,33.41
2022-07-28T04:32:01.129Z,33.62
2022-07-28T04:32:40.649Z,33.60
2022-07-28T04:33:19.551Z,33.50
2022-07-28T04:33:57.093Z,33.46
2022-07-28T04:34:34.679Z,33.32
2022-07-28T04:35:17.121Z,33.24
2022-07-28T04:36:02.215Z,33.30
2022-07-28T04:36:49.147Z,33.26
2022-07-28T04:37:36.360Z,33.48
2022-07-28T04:38:13.476Z,33.39
2022-07-28T04:38:50.476Z,33.78
2022-07-28T04:39:27.499Z,33.29
2022-07-28T04:40:04.629Z,33.34
2022-07-28T04:40:42.268Z,33.30
2022-07-28T04:41:19.389Z,33.47
2022-07-28T04:41:56.608Z,33.32
2022-07-28T04:42:33.632Z,33.50
2022-07-28T04:43:10.646Z,33.43
2022-07-28T04:43:47.926Z,33.43
2022-07-28T04:44:24.918Z,33.41
2022-07-28T04:45:01.966Z,33.54
2022-07-28T04:45:39.009Z,33.52
2022-07-28T04:46:23.911Z,33.17
2022-07-28T04:47:01.751Z,33.36
2022-07-28T04:47:43.518Z,33.43
2022-07-28T04:48:21.357Z,33.58
2022-07-28T04:48:58.950Z,33.46
2022-07-28T04:49:36.872Z,33.24
2022-07-28T04:50:14.897Z,33.44
2022-07-28T04:50:53.328Z,33.36
2022-07-28T04:51:31.368Z,33.38
2022-07-28T04:52:10.431Z,33.39
2022-07-28T04:52:50.369Z,33.47
2022-07-28T04:53:39.644Z,33.63
2022-07-28T04:54:17.392Z,33.65
2022-07-28T04:55:02.319Z,33.64
2022-07-28T04:55:39.746Z,33.77
2022-07-28T04:56:19.158Z,33.87
2022-07-28T04:56:57.688Z,33.71
2022-07-28T04:57:35.479Z,33.46
2022-07-28T04:58:13.512Z,33.50
2022-07-28T04:58:52.179Z,33.67
2022-07-28T04:59:29.831Z,33.76
2022-07-28T05:00:08.138Z,33.38
2022-07-28T05:00:45.054Z,33.65
2022-07-28T05:01:22.397Z,33.67
2022-07-28T05:02:00.443Z,33.52
2022-07-28T05:02:38.372Z,33.53
2022-07-28T05:03:16.537Z,33.64
2022-07-28T05:03:59.558Z,33.68
2022-07-28T05:04:45.274Z,33.61
2022-07-28T05:05:31.313Z,33.67
2022-07-28T05:06:11.882Z,33.60
2022-07-28T05:06:49.804Z,33.73
2022-07-28T05:07:28.481Z,33.89
2022-07-28T05:08:05.542Z,33.63
2022-07-28T05:08:43.297Z,33.77
2022-07-28T05:09:20.357Z,33.86
2022-07-28T05:09:58.548Z,33.96
2022-07-28T05:10:36.154Z,33.78
2022-07-28T05:11:13.548Z,33.79
2022-07-28T05:11:51.278Z,33.89
2022-07-28T05:12:29.117Z,34.04
2022-07-28T05:13:09.275Z,33.61
2022-07-28T05:13:46.485Z,33.91
2022-07-28T05:14:24.190Z,33.90
2022-07-28T05:15:02.066Z,33.67
2022-07-28T05:15:39.959Z,33.65
2022-07-28T05:16:18.153Z,33.71
2022-07-28T05:16:55.790Z,33.62
2022-07-28T05:17:33.578Z,33.66
2022-07-28T05:18:11.532Z,33.76
2022-07-28T05:18:49.212Z,34.01
2022-07-28T05:19:27.064Z,33.93
2022-07-28T05:20:04.757Z,33.70
2022-07-28T05:20:42.574Z,33.75
2022-07-28T05:21:22.406Z,33.78
2022-07-28T05:22:00.456Z,33.62
2022-07-28T05:22:45.451Z,33.70
2022-07-28T05:23:33.916Z,33.66
2022-07-28T05:24:24.976Z,33.93
2022-07-28T05:25:02.389Z,34.01
2022-07-28T05:25:39.816Z,33.88
2022-07-28T05:26:17.725Z,33.87
2022-07-28T05:26:54.882Z,33.91
2022-07-28T05:27:33.133Z,33.89
2022-07-28T05:28:10.653Z,33.89
2022-07-28T05:28:47.555Z,33.68
2022-07-28T05:29:24.842Z,33.88
2022-07-28T05:30:11.699Z,33.79
2022-07-28T05:30:48.988Z,33.85
2022-07-28T05:31:27.052Z,33.98
2022-07-28T05:32:15.579Z,33.76
2022-07-28T05:32:58.701Z,33.76
2022-07-28T05:33:41.440Z,34.05
2022-07-28T05:34:33.713Z,33.72
2022-07-28T05:35:11.188Z,33.58
2022-07-28T05:36:03.514Z,33.84
2022-07-28T05:36:48.066Z,33.96
2022-07-28T05:37:25.587Z,33.89
2022-07-28T05:38:06.408Z,33.66
2022-07-28T05:38:46.891Z,33.83
2022-07-28T05:39:24.716Z,34.03
2022-07-28T05:40:01.857Z,33.93
2022-07-28T05:40:39.042Z,33.98
2022-07-28T05:41:16.092Z,33.81
2022-07-28T05:41:53.260Z,33.64
2022-07-28T05:42:31.226Z,33.86
2022-07-28T05:43:08.611Z,34.11
2022-07-28T05:43:46.587Z,34.29
2022-07-28T05:44:25.160Z,33.99
2022-07-28T05:45:02.814Z,34.00
2022-07-28T05:45:40.681Z,33.83
2022-07-28T05:46:18.427Z,33.84
2022-07-28T05:46:56.056Z,34.06
2022-07-28T05:47:34.893Z,34.12
2022-07-28T05:48:13.090Z,34.08
2022-07-28T05:48:50.604Z,34.25
2022-07-28T05:49:28.955Z,34.07
2022-07-28T05:50:07.487Z,34.25
2022-07-28T05:50:47.820Z,34.28
2022-07-28T05:51:24.875Z,34.01
2022-07-28T05:52:01.949Z,34.08
2022-07-28T05:52:40.797Z,34.14
2022-07-28T05:53:18.597Z,33.92
2022-07-28T05:53:56.511Z,34.28
2022-07-28T05:54:33.955Z,33.99
2022-07-28T05:55:11.112Z,34.20
2022-07-28T05:55:59.830Z,34.13
2022-07-28T05:56:45.872Z,34.09
2022-07-28T05:57:33.893Z,33.90
2022-07-28T05:58:13.307Z,34.23
2022-07-28T05:58:50.434Z,34.17
2022-07-28T05:59:28.160Z,34.11
2022-07-28T06:00:05.099Z,34.22
2022-07-28T06:00:42.309Z,34.19
2022-07-28T06:01:19.508Z,34.06
2022-07-28T06:01:57.039Z,34.35
2022-07-28T06:02:36.850Z,33.98
2022-07-28T06:03:14.160Z,33.95
2022-07-28T06:04:03.650Z,34.02
2022-07-28T06:04:49.366Z,34.08
2022-07-28T06:05:27.154Z,34.19
2022-07-28T06:06:15.653Z,33.97
2022-07-28T06:06:55.872Z,34.16
2022-07-28T06:07:42.626Z,34.20
2022-07-28T06:08:20.618Z,34.35
2022-07-28T06:08:58.592Z,34.29
2022-07-28T06:09:35.499Z,34.08
2022-07-28T06:10:13.507Z,34.07
2022-07-28T06:10:50.771Z,34.14
2022-07-28T06:11:28.001Z,34.26
2022-07-28T06:12:04.975Z,34.38
2022-07-28T06:12:51.243Z,34.31
2022-07-28T06:13:31.899Z,34.25
2022-07-28T06:14:16.944Z,34.30
2022-07-28T06:14:53.809Z,34.45
2022-07-28T06:15:31.097Z,34.17
2022-07-28T06:16:12.942Z,34.38
2022-07-28T06:16:49.415Z,34.34
2022-07-28T06:17:27.185Z,34.22
2022-07-28T06:18:05.909Z,34.28
2022-07-28T06:18:43.012Z,34.25
2022-07-28T06:19:20.485Z,34.52
2022-07-28T06:19:58.673Z,34.11
2022-07-28T06:20:35.707Z,34.18
2022-07-28T06:21:13.026Z,34.30
2022-07-28T06:21:50.826Z,34.25
2022-07-28T06:22:28.791Z,34.28
2022-07-28T06:23:07.561Z,34.38
2022-07-28T06:23:47.212Z,34.15
2022-07-28T06:24:24.393Z,34.25
2022-07-28T06:25:02.237Z,34.49
2022-07-28T06:25:39.382Z,34.36
2022-07-28T06:26:18.240Z,34.24
2022-07-28T06:26:58.260Z,34.41
2022-07-28T06:27:40.316Z,34.35
2022-07-28T06:28:21.290Z,34.21
2022-07-28T06:29:01.643Z,34.18
2022-07-28T06:29:40.498Z,34.27
2022-07-28T06:30:19.136Z,34.19
2022-07-28T06:30:55.893Z,34.26
2022-07-28T06:31:33.016Z,34.25
2022-07-28T06:32:12.791Z,34.42
2022-07-28T06:32:55.197Z,34.41
2022-07-28T06:33:39.948Z,34.22
2022-07-28T06:34:24.102Z,34.31
2022-07-28T06:35:05.594Z,34.13
2022-07-28T06:35:51.051Z,34.17
2022-07-28T06:36:32.408Z,34.34
2022-07-28T06:37:14.162Z,34.48
2022-07-28T06:37:55.196Z,34.50
2022-07-28T06:38:37.321Z,34.51
2022-07-28T06:39:16.440Z,34.35
2022-07-28T06:39:54.018Z,34.30
2022-07-28T06:40:31.507Z,34.45
2022-07-28T06:41:09.858Z,34.38
2022-07-28T06:42:02.349Z,34.39
2022-07-28T06:42:48.081Z,34.69
2022-07-28T06:43:39.309Z,34.40
2022-07-28T06:44:54.887Z,34.59
2022-07-28T06:45:39.103Z,34.50
2022-07-28T06:46:28.033Z,34.27
2022-07-28T06:47:16.564Z,34.14
2022-07-28T06:48:03.207Z,34.39
2022-07-28T06:48:58.774Z,34.49
2022-07-28T06:49:50.889Z,34.36
2022-07-28T06:50:41.233Z,34.40
2022-07-28T06:51:31.756Z,34.55
2022-07-28T06:52:20.229Z,34.26
2022-07-28T06:53:16.034Z,34.31
2022-07-28T06:54:11.115Z,34.65
2022-07-28T06:54:59.143Z,34.47
2022-07-28T06:55:49.994Z,34.14
2022-07-28T06:56:40.516Z,34.47
2022-07-28T06:57:33.624Z,34.38
2022-07-28T06:58:28.302Z,34.66
2022-07-28T06:59:18.215Z,34.47
2022-07-28T07:00:06.738Z,34.74
2022-07-28T07:00:55.059Z,34.74
2022-07-28T07:01:43.939Z,34.34
2022-07-28T07:02:35.564Z,34.46
2022-07-28T07:03:31.741Z,34.24
2022-07-28T07:04:24.313Z,34.52
2022-07-28T07:05:12.836Z,34.49
2022-07-28T07:06:04.708Z,34.47
2022-07-28T07:06:57.746Z,34.47
2022-07-28T07:07:49.939Z,34.06
2022-07-28T07:08:45.412Z,34.15
2022-07-28T07:09:38.065Z,34.49
2022-07-28T07:10:27.983Z,34.37
2022-07-28T07:11:20.596Z,34.41
2022-07-28T07:12:09.473Z,34.59
2022-07-28T07:13:01.024Z,34.84
2022-07-28T07:14:02.579Z,34.77
2022-07-28T07:14:52.722Z,34.59
2022-07-28T07:15:41.423Z,34.39
2022-07-28T07:16:31.741Z,34.14
2022-07-28T07:17:23.472Z,33.89
2022-07-28T07:18:16.617Z,34.05
2022-07-28T07:19:15.644Z,34.40
2022-07-28T07:20:04.149Z,34.07
2022-07-28T07:21:52.841Z,34.04
2022-07-28T07:22:42.592Z,34.34
2022-07-28T07:23:38.196Z,33.95
2022-07-28T07:24:31.429Z,34.11
2022-07-28T07:25:26.729Z,34.10
2022-07-28T07:26:20.946Z,34.18
2022-07-28T07:27:13.294Z,34.11
2022-07-28T07:28:07.128Z,34.44
2022-07-28T07:29:00.050Z,34.53
2022-07-28T07:29:58.413Z,34.38
2022-07-28T07:30:50.837Z,34.59
2022-07-28T07:31:44.695Z,34.63
2022-07-28T07:32:37.317Z,34.25
2022-07-28T07:33:34.750Z,34.40
2022-07-28T07:34:26.320Z,34.42
2022-07-28T07:35:22.753Z,34.41
2022-07-28T07:36:14.133Z,34.61
2022-07-28T07:37:09.501Z,34.39
2022-07-28T07:38:05.962Z,34.60
2022-07-28T07:40:04.316Z,34.36
2022-07-28T07:42:51.666Z,34.29
2022-07-28T07:43:59.080Z,34.38
2022-07-28T07:44:58.517Z,34.32
2022-07-28T07:46:59.972Z,34.46
2022-07-28T07:48:00.789Z,34.23
2022-07-28T07:48:59.227Z,34.43
2022-07-28T07:49:55.645Z,34.12
2022-07-28T07:50:53.605Z,34.22
2022-07-28T08:07:27.387Z,34.26
2022-07-28T08:08:00.427Z,34.17
2022-07-28T08:08:38.577Z,34.35
2022-07-28T08:09:13.518Z,34.43
2022-07-28T08:09:45.529Z,34.58
2022-07-28T08:10:17.672Z,34.48
2022-07-28T08:10:50.467Z,34.49
2022-07-28T08:11:23.515Z,34.60
2022-07-28T08:11:58.259Z,34.49
2022-07-28T08:12:31.353Z,34.57
2022-07-28T08:13:05.524Z,34.54
2022-07-28T08:13:42.329Z,34.54
2022-07-28T08:14:17.576Z,34.38
2022-07-28T08:14:55.265Z,34.21
2022-07-28T08:15:28.784Z,34.42
2022-07-28T08:16:05.767Z,34.27
2022-07-28T08:16:43.654Z,34.42
2022-07-28T10:32:03.751Z,34.32
2022-07-28T10:32:41.015Z,34.27
2022-07-28T10:33:16.133Z,34.08
2022-07-28T10:33:49.492Z,34.38
2022-07-28T10:34:27.499Z,34.44
2022-07-28T10:35:04.686Z,34.11
2022-07-28T10:35:45.209Z,34.29
2022-07-28T10:36:29.150Z,34.09
2022-07-28T10:37:03.758Z,34.28
2022-07-28T10:37:44.032Z,34.10
2022-07-28T12:42:20.590Z,34.39
2022-07-28T12:42:54.769Z,33.82
2022-07-28T12:43:27.828Z,34.06
2022-07-28T12:44:01.934Z,34.15
2022-07-28T12:55:01.011Z,34.32
2022-07-28T12:55:32.516Z,33.97
2022-07-28T12:56:03.999Z,34.40
2022-07-28T12:56:44.972Z,34.38
2022-07-28T12:57:16.426Z,34.43
2022-07-28T12:57:51.240Z,34.22
2022-07-28T12:58:23.727Z,34.51
2022-07-28T12:59:05.339Z,34.39
2022-07-28T12:59:37.021Z,34.36
2022-07-28T13:00:08.671Z,34.39
2022-07-28T13:00:40.173Z,34.25
2022-07-28T13:01:11.727Z,34.04
2022-07-28T13:01:46.716Z,34.27
2022-07-28T13:02:18.258Z,33.92
2022-07-28T13:02:50.330Z,34.39
2022-07-28T13:03:25.857Z,34.46
2022-07-28T13:03:57.314Z,34.39
2022-07-28T13:04:47.680Z,34.21
2022-07-28T13:05:37.975Z,34.21
2022-07-28T13:06:09.969Z,34.37
2022-07-28T13:06:41.430Z,34.26
2022-07-28T13:07:23.497Z,34.65
2022-07-28T13:08:02.122Z,34.52
2022-07-28T13:08:45.125Z,34.19
2022-07-28T13:09:22.521Z,33.90
2022-07-28T13:10:02.212Z,34.29
2022-07-28T13:10:33.841Z,34.46
2022-07-28T13:11:09.795Z,34.32
2022-07-28T13:11:46.979Z,34.41
2022-07-28T13:12:20.815Z,34.00
2022-07-28T13:13:12.537Z,34.15
2022-07-28T13:13:48.021Z,34.14
2022-07-28T13:14:38.039Z,34.36
2022-07-28T13:15:15.940Z,34.49
2022-07-28T13:16:05.947Z,34.34
2022-07-28T13:16:37.496Z,33.94
2022-07-28T13:17:08.997Z,34.37
2022-07-28T13:17:52.597Z,34.36
2022-07-28T13:18:42.930Z,34.56
2022-07-28T13:19:20.765Z,34.10
2022-07-28T13:20:03.138Z,34.26
2022-07-28T13:20:52.620Z,34.17
2022-07-28T13:21:57.649Z,34.30
2022-07-28T13:22:31.381Z,33.91
2022-07-28T13:23:02.867Z,34.19
2022-07-28T13:23:34.396Z,34.01
2022-07-28T13:24:06.124Z,34.40
2022-07-28T13:24:37.617Z,34.17
2022-07-28T13:25:09.109Z,33.81
2022-07-28T13:25:40.685Z,34.17
2022-07-28T13:26:12.157Z,34.11
2022-07-28T13:26:44.315Z,34.20
2022-07-28T13:27:15.857Z,34.09
2022-07-28T13:27:50.915Z,34.30
2022-07-28T13:28:26.554Z,34.28
2022-07-28T13:29:01.104Z,34.35
2022-07-28T13:29:33.126Z,34.19
2022-07-28T13:30:04.924Z,34.07
2022-07-28T13:30:36.346Z,34.41
2022-07-28T13:31:07.824Z,34.25
2022-07-28T13:31:39.478Z,34.00
2022-07-28T13:32:11.140Z,33.95
2022-07-28T13:32:42.947Z,33.94
2022-07-28T13:33:14.624Z,34.07
2022-07-28T13:33:48.392Z,34.27
2022-07-28T13:34:20.065Z,33.92
2022-07-28T13:34:51.803Z,34.37
2022-07-28T13:35:23.313Z,34.13
2022-07-28T13:35:54.714Z,34.20
2022-07-28T13:36:26.202Z,34.26
2022-07-28T13:36:57.656Z,34.26
2022-07-28T13:37:29.122Z,34.35
2022-07-28T13:38:00.574Z,34.34
2022-07-28T13:38:32.054Z,34.25
2022-07-28T13:39:03.815Z,34.24
2022-07-28T13:39:35.262Z,34.17
2022-07-28T13:40:06.925Z,34.43
2022-07-28T13:40:38.402Z,34.50
2022-07-28T13:41:09.884Z,34.45
2022-07-28T13:41:42.063Z,34.42
2022-07-28T13:42:28.538Z,34.26
2022-07-28T13:42:59.991Z,34.14
2022-07-28T13:43:35.685Z,34.24
2022-07-28T13:44:07.897Z,34.14
2022-07-28T13:44:41.674Z,34.61
2022-07-28T13:45:13.230Z,33.79
2022-07-28T13:45:48.805Z,34.33
2022-07-28T13:46:20.376Z,34.17
2022-07-28T13:46:52.704Z,33.93
2022-07-28T13:47:24.205Z,34.39
2022-07-28T13:47:55.680Z,34.02
2022-07-28T13:48:27.192Z,34.02
2022-07-28T13:49:00.180Z,34.43
2022-07-28T13:49:32.790Z,34.33
2022-07-28T13:50:04.350Z,33.97
2022-07-28T13:50:36.201Z,34.37
2022-07-28T13:51:07.971Z,34.42
2022-07-28T13:51:39.639Z,34.34
2022-07-28T13:52:12.880Z,34.40
2022-07-28T13:52:44.920Z,34.24
2022-07-28T13:53:16.414Z,34.03
2022-07-28T13:53:47.957Z,34.06
2022-07-28T13:54:20.292Z,34.08
2022-07-28T13:54:52.200Z,34.20
2022-07-28T13:55:23.657Z,34.51
2022-07-28T13:55:58.628Z,34.24
2022-07-28T13:56:30.115Z,34.47
2022-07-28T13:57:01.631Z,34.32
2022-07-28T13:57:35.949Z,34.46
2022-07-28T13:58:08.847Z,34.50
2022-07-28T13:58:40.632Z,34.11